Portada
METAR-TAF:

METAR-TAF

Aeroports :

Nimes, França

latitud: 43-45N, longitud: 004-25E, altitud: 94 m

Observació

L'informe es va fer fa 29 minuts, a les 21:00 UTC
Vent 8 kt del Nord/Nord-Est
Temperatura 21°C
Humitat 38%
Pressió 1018 hPa
Visibilitat 10 km o més
sense núvols per sota de 1500 mi sense presència de cumulonimbus.

METAR: LFTW 232100Z AUTO 02008KT CAVOK 21/06 Q1018

Hora: 23:29 (21:29 UTC)

Pronòstic

L'informe es va fer fa 7 hores i 29 minuts, a les 14:00 UTC
Pronòstic vàlid del 23 a les 15 UTC al 24 a les 15 UTC
Vent 10 kt del Nord
Visibilitat 10 km o més
sense núvols per sota de 1500 mi sense presència de cumulonimbus.

TAF: LFTW 231400Z 2315/2415 36010KT CAVOK

Observacions i pronòstics meteorològics de més de 4000 aeroports (METAR i TAF).

Les estacions disponibles són els punts grocs i vermells al mapa.

Posi el ratolí al punt desitjat per veure el nom de l'estació.

Feu clic per veure les observacions i els pronòstics meteorològics.

Per canviar el mapa: feu clic els botons verds amb una creu de color negre per apropar; al botó verd amb un guió per allunyar la imatge; o en les fletxes verdes per a mapes adjacents.


METAR-TAF: